Main page
METAR-TAF:

METAR-TAF

Airports :

Kirkwall Airport

Kirkwall, Scotland

latitude: 58-57N, longitude: 002-54W, elevation: 21 m

Current weather observation

The report was made 30 minutes ago, at 07:20 UTC
Wind 11 kt from the South
Temperature 14°C
Humidity 88%
Pressure 987 hPa
Visibility 10 km or more
Few clouds at a height of 1500 ft

METAR: EGPA 180720Z 19011KT 9999 FEW015 14/12 Q0987

Time: 08:50 (07:50 UTC)

Forecast

The report was made 2 hours and 52 minutes ago, at 04:58 UTC
Forecast valid from 18 at 06 UTC to 18 at 15 UTC
Wind 12 kt from the South
Visibility 10 km or more
Scattered clouds at a height of 3500 ft
Probability 40% :
Temporary
from 18 at 06 UTC to 18 at 10 UTC
Visibility: 5000 m
rain
Temporary
from 18 at 10 UTC to 18 at 15 UTC
Visibility: 6000 m
Broken clouds at a height of 1000 ft
rain showers
Becoming
from 18 at 12 UTC to 18 at 15 UTC
Wind 8 kt from the Southwest

TAF: EGPA 180458Z 1806/1815 17012KT 9999 SCT035 PROB40 TEMPO 1806/1810 5000 RA TEMPO 1810/1815 6000 SHRA BKN010 BECMG 1812/1815 23008KT

Weather observations and forecasts of more than 4000 airports (METAR and TAF reports).

The available stations are represented by yellow and red dots on the map.

Hover mouse over dot to see the name of the station.

Then click to see weather observations and forecasts.

To change the map : click on the green buttons with a black cross to zoom in, on the green button with a dash to zoom out, or on the green arrows for adjacent maps.


METAR-TAF: